createdAt,value
2019-05-06T00:00:56.619Z,21.17
2019-05-06T00:01:48.681Z,21.24
2019-05-06T00:02:47.672Z,21.22
2019-05-06T00:03:47.667Z,21.22
2019-05-06T00:04:47.659Z,21.19
2019-05-06T00:05:47.654Z,21.19
2019-05-06T00:06:47.664Z,21.13
2019-05-06T00:07:47.668Z,21.17
2019-05-06T00:08:47.630Z,21.19
2019-05-06T00:09:47.625Z,21.19
2019-05-06T00:10:47.612Z,21.25
2019-05-06T00:11:47.614Z,21.25
2019-05-06T00:12:47.975Z,21.29
2019-05-06T00:13:47.592Z,21.22
2019-05-06T00:14:47.613Z,21.16
2019-05-06T00:15:47.570Z,21.21
2019-05-06T00:16:47.569Z,21.24
2019-05-06T00:17:47.559Z,21.24
2019-05-06T00:18:47.573Z,21.22
2019-05-06T00:19:47.547Z,21.25
2019-05-06T00:20:47.538Z,21.21
2019-05-06T00:21:47.532Z,21.19
2019-05-06T00:22:47.550Z,21.19
2019-05-06T00:23:47.523Z,21.22
2019-05-06T00:24:47.556Z,21.24
2019-05-06T00:25:47.506Z,21.22
2019-05-06T00:26:47.494Z,21.21
2019-05-06T00:27:47.483Z,21.16
2019-05-06T00:28:47.476Z,21.22
2019-05-06T00:29:47.495Z,21.24
2019-05-06T00:30:47.466Z,21.24
2019-05-06T00:31:47.452Z,21.22
2019-05-06T00:32:47.446Z,21.31
2019-05-06T00:33:47.439Z,21.21
2019-05-06T00:34:47.431Z,21.22
2019-05-06T00:35:47.422Z,21.16
2019-05-06T00:36:47.427Z,21.22
2019-05-06T00:37:47.415Z,21.24
2019-05-06T00:38:47.407Z,21.25
2019-05-06T00:39:47.408Z,21.22
2019-05-06T00:40:47.388Z,21.22
2019-05-06T00:41:47.385Z,21.25
2019-05-06T00:42:47.378Z,21.24
2019-05-06T00:43:47.397Z,21.21
2019-05-06T00:44:47.399Z,21.24
2019-05-06T00:45:47.410Z,21.21
2019-05-06T00:46:47.386Z,21.14
2019-05-06T00:47:47.377Z,21.24
2019-05-06T00:48:47.459Z,21.22
2019-05-06T00:49:47.365Z,21.19
2019-05-06T00:50:47.350Z,21.24
2019-05-06T00:51:47.358Z,21.10
2019-05-06T00:52:47.334Z,21.17
2019-05-06T00:53:47.346Z,21.16
2019-05-06T00:54:47.415Z,21.09
2019-05-06T00:55:47.322Z,21.19
2019-05-06T00:56:47.317Z,21.16
2019-05-06T00:57:47.338Z,21.10
2019-05-06T00:58:47.307Z,21.24
2019-05-06T00:59:47.291Z,21.09
2019-05-06T01:00:47.309Z,21.17
2019-05-06T01:01:47.298Z,21.09
2019-05-06T01:02:47.284Z,21.24
2019-05-06T01:03:47.271Z,21.16
2019-05-06T01:04:47.288Z,21.16
2019-05-06T01:05:47.270Z,21.21
2019-05-06T01:06:47.267Z,21.14
2019-05-06T01:07:47.256Z,21.14
2019-05-06T01:08:47.241Z,21.19
2019-05-06T01:09:47.231Z,21.17
2019-05-06T01:10:47.234Z,21.22
2019-05-06T01:11:47.220Z,21.13
2019-05-06T01:12:47.234Z,21.17
2019-05-06T01:13:47.228Z,21.14
2019-05-06T01:14:47.248Z,21.06
2019-05-06T01:15:47.212Z,21.09
2019-05-06T01:16:47.206Z,21.24
2019-05-06T01:17:47.208Z,21.13
2019-05-06T01:18:47.213Z,21.14
2019-05-06T01:19:47.190Z,21.24
2019-05-06T01:20:47.181Z,21.13
2019-05-06T01:21:47.182Z,21.22
2019-05-06T01:22:47.159Z,21.14
2019-05-06T01:23:47.179Z,21.16
2019-05-06T01:24:47.236Z,21.12
2019-05-06T01:25:47.179Z,21.21
2019-05-06T01:26:47.152Z,21.12
2019-05-06T01:27:47.145Z,21.07
2019-05-06T01:28:47.139Z,21.21
2019-05-06T01:29:47.150Z,21.13
2019-05-06T01:30:47.184Z,21.13
2019-05-06T01:31:47.139Z,21.04
2019-05-06T01:32:47.135Z,21.19
2019-05-06T01:33:47.136Z,21.09
2019-05-06T01:34:47.155Z,21.14
2019-05-06T01:35:47.129Z,21.21
2019-05-06T01:36:47.218Z,21.07
2019-05-06T01:37:47.101Z,21.16
2019-05-06T01:38:47.095Z,21.17
2019-05-06T01:39:47.096Z,21.16
2019-05-06T01:40:47.081Z,21.10
2019-05-06T01:41:47.089Z,21.14
2019-05-06T01:42:47.091Z,21.16
2019-05-06T01:43:47.059Z,21.06
2019-05-06T01:44:47.061Z,21.19
2019-05-06T01:45:47.073Z,21.10
2019-05-06T01:46:47.037Z,21.16
2019-05-06T01:47:47.036Z,21.17
2019-05-06T01:48:47.023Z,21.16
2019-05-06T01:49:47.014Z,21.17
2019-05-06T01:50:47.030Z,21.09
2019-05-06T01:51:47.024Z,21.25
2019-05-06T01:52:47.029Z,21.28
2019-05-06T01:53:47.030Z,21.09
2019-05-06T01:54:47.014Z,21.10
2019-05-06T01:55:47.030Z,21.12
2019-05-06T01:56:46.976Z,21.14
2019-05-06T01:57:46.971Z,21.14
2019-05-06T01:58:46.970Z,21.10
2019-05-06T01:59:46.958Z,21.04
2019-05-06T02:00:46.962Z,21.04
2019-05-06T02:01:57.445Z,21.06
2019-05-06T02:02:47.933Z,21.07
2019-05-06T02:03:46.939Z,21.12
2019-05-06T02:04:46.916Z,21.10
2019-05-06T02:05:46.915Z,21.16
2019-05-06T02:06:46.907Z,21.13
2019-05-06T02:07:46.889Z,21.10
2019-05-06T02:08:46.882Z,21.13
2019-05-06T02:09:46.877Z,21.16
2019-05-06T02:10:46.903Z,21.17
2019-05-06T02:11:48.029Z,21.04
2019-05-06T02:12:46.881Z,21.04
2019-05-06T02:13:46.857Z,21.16
2019-05-06T02:14:46.846Z,21.19
2019-05-06T02:15:46.838Z,21.07
2019-05-06T02:16:46.837Z,21.09
2019-05-06T02:17:46.821Z,21.13
2019-05-06T02:18:46.900Z,21.09
2019-05-06T02:19:46.832Z,21.07
2019-05-06T02:20:46.804Z,21.10
2019-05-06T02:21:46.798Z,21.16
2019-05-06T02:22:46.790Z,21.12
2019-05-06T02:23:46.780Z,21.04
2019-05-06T02:24:46.783Z,21.19
2019-05-06T02:25:46.765Z,21.13
2019-05-06T02:26:46.756Z,21.13
2019-05-06T02:27:46.780Z,21.09
2019-05-06T02:28:46.740Z,21.07
2019-05-06T02:29:46.735Z,21.14
2019-05-06T02:30:46.764Z,21.10
2019-05-06T02:31:46.722Z,21.21
2019-05-06T02:32:46.743Z,21.12
2019-05-06T02:33:46.700Z,21.17
2019-05-06T02:34:46.721Z,21.13
2019-05-06T02:35:46.685Z,21.06
2019-05-06T02:36:46.711Z,21.10
2019-05-06T02:37:46.843Z,21.10
2019-05-06T02:38:51.413Z,21.16
2019-05-06T02:39:47.672Z,21.07
2019-05-06T02:40:46.674Z,21.12
2019-05-06T02:41:46.666Z,21.10
2019-05-06T02:42:46.670Z,21.13
2019-05-06T02:43:46.646Z,21.09
2019-05-06T02:44:46.642Z,21.09
2019-05-06T02:45:46.647Z,21.09
2019-05-06T02:46:46.620Z,21.14
2019-05-06T02:47:46.610Z,21.12
2019-05-06T02:48:46.700Z,21.12
2019-05-06T02:49:46.631Z,21.14
2019-05-06T02:50:46.595Z,21.13
2019-05-06T02:51:46.597Z,21.06
2019-05-06T02:52:46.590Z,21.13
2019-05-06T02:53:46.575Z,21.07
2019-05-06T02:54:46.575Z,21.06
2019-05-06T02:55:46.557Z,21.13
2019-05-06T02:56:46.559Z,21.03
2019-05-06T02:57:46.589Z,21.13
2019-05-06T02:58:46.540Z,20.99
2019-05-06T02:59:46.532Z,21.12
2019-05-06T03:00:46.900Z,21.06
2019-05-06T03:01:46.521Z,21.14
2019-05-06T03:02:48.275Z,21.12
2019-05-06T03:03:46.522Z,21.12
2019-05-06T03:04:46.489Z,21.13
2019-05-06T03:05:46.508Z,21.09
2019-05-06T03:06:46.596Z,21.12
2019-05-06T03:07:46.492Z,21.10
2019-05-06T03:08:46.485Z,21.10
2019-05-06T03:09:46.496Z,21.07
2019-05-06T03:10:46.463Z,21.06
2019-05-06T03:11:46.455Z,21.09
2019-05-06T03:12:46.471Z,21.10
2019-05-06T03:13:46.441Z,21.10
2019-05-06T03:14:46.434Z,21.07
2019-05-06T03:15:46.451Z,21.01
2019-05-06T03:16:46.418Z,21.13
2019-05-06T03:17:46.440Z,21.13
2019-05-06T03:18:46.418Z,21.14
2019-05-06T03:19:46.397Z,21.06
2019-05-06T03:20:46.390Z,21.10
2019-05-06T03:21:46.381Z,21.06
2019-05-06T03:22:46.373Z,21.04
2019-05-06T03:23:46.383Z,21.10
2019-05-06T03:24:46.393Z,21.10
2019-05-06T03:25:46.396Z,21.06
2019-05-06T03:26:46.371Z,21.04
2019-05-06T03:27:47.021Z,21.04
2019-05-06T03:28:46.354Z,21.13
2019-05-06T03:29:46.352Z,21.09
2019-05-06T03:30:46.530Z,21.06
2019-05-06T03:31:46.715Z,21.10
2019-05-06T03:33:21.283Z,21.09
2019-05-06T03:34:09.259Z,21.09
2019-05-06T03:35:13.779Z,21.10
2019-05-06T03:36:00.367Z,21.06
2019-05-06T03:36:48.971Z,21.06
2019-05-06T03:37:46.317Z,21.06
2019-05-06T03:38:46.304Z,20.99
2019-05-06T03:39:46.278Z,21.09
2019-05-06T03:40:46.270Z,21.04
2019-05-06T03:41:46.263Z,21.06
2019-05-06T03:42:46.263Z,21.03
2019-05-06T03:43:46.245Z,21.14
2019-05-06T03:44:46.238Z,21.09
2019-05-06T03:45:46.239Z,21.10
2019-05-06T03:46:46.235Z,21.04
2019-05-06T03:47:46.248Z,21.09
2019-05-06T03:48:46.208Z,21.03
2019-05-06T03:49:49.708Z,21.07
2019-05-06T03:50:46.193Z,21.06
2019-05-06T03:51:46.177Z,21.09
2019-05-06T03:52:46.169Z,21.06
2019-05-06T03:53:46.164Z,21.07
2019-05-06T03:54:46.197Z,21.06
2019-05-06T03:55:47.200Z,21.07
2019-05-06T03:56:46.171Z,21.01
2019-05-06T03:57:46.164Z,20.98
2019-05-06T03:58:46.161Z,21.01
2019-05-06T03:59:46.165Z,21.04
2019-05-06T04:00:46.150Z,21.04
2019-05-06T04:01:46.181Z,21.03
2019-05-06T04:02:46.154Z,21.01
2019-05-06T04:03:51.571Z,21.10
2019-05-06T04:04:47.124Z,21.06
2019-05-06T04:05:46.108Z,21.07
2019-05-06T04:06:46.129Z,21.01
2019-05-06T04:07:46.181Z,21.01
2019-05-06T04:08:46.073Z,21.01
2019-05-06T04:09:46.069Z,21.07
2019-05-06T04:10:46.071Z,21.09
2019-05-06T04:11:46.075Z,21.04
2019-05-06T04:12:46.085Z,21.06
2019-05-06T04:13:46.041Z,20.97
2019-05-06T04:14:46.048Z,21.04
2019-05-06T04:15:47.648Z,20.99
2019-05-06T04:16:46.018Z,21.03
2019-05-06T04:17:46.024Z,21.06
2019-05-06T04:18:46.003Z,21.06
2019-05-06T04:19:45.994Z,21.03
2019-05-06T04:20:45.999Z,20.99
2019-05-06T04:21:45.981Z,21.01
2019-05-06T04:22:45.977Z,21.01
2019-05-06T04:23:45.983Z,21.04
2019-05-06T04:24:45.961Z,21.06
2019-05-06T04:25:45.949Z,21.03
2019-05-06T04:26:46.467Z,20.99
2019-05-06T04:27:45.934Z,21.03
2019-05-06T04:28:45.931Z,21.04
2019-05-06T04:29:45.921Z,21.07
2019-05-06T04:30:45.946Z,21.03
2019-05-06T04:31:45.901Z,21.01
2019-05-06T04:32:45.893Z,20.97
2019-05-06T04:34:03.445Z,20.99
2019-05-06T04:34:46.884Z,21.07
2019-05-06T04:35:45.892Z,21.04
2019-05-06T04:36:45.889Z,21.01
2019-05-06T04:37:45.873Z,20.98
2019-05-06T04:38:45.859Z,20.94
2019-05-06T04:39:45.865Z,20.98
2019-05-06T04:40:45.845Z,21.03
2019-05-06T04:41:45.833Z,21.03
2019-05-06T04:42:45.842Z,20.98
2019-05-06T04:43:45.824Z,21.01
2019-05-06T04:44:45.816Z,20.99
2019-05-06T04:45:45.825Z,20.99
2019-05-06T04:46:45.797Z,21.07
2019-05-06T04:47:45.800Z,21.01
2019-05-06T04:48:45.781Z,21.04
2019-05-06T04:49:45.812Z,20.97
2019-05-06T04:50:45.768Z,21.03
2019-05-06T04:51:45.750Z,21.03
2019-05-06T04:52:45.752Z,21.03
2019-05-06T04:53:45.733Z,21.01
2019-05-06T04:54:45.744Z,21.07
2019-05-06T04:55:45.740Z,21.07
2019-05-06T04:56:45.717Z,21.06
2019-05-06T04:57:45.711Z,21.06
2019-05-06T04:58:45.720Z,21.10
2019-05-06T04:59:45.695Z,21.04
2019-05-06T05:00:45.775Z,21.03
2019-05-06T05:01:45.953Z,21.09
2019-05-06T05:02:46.350Z,21.10
2019-05-06T05:03:45.753Z,21.07
2019-05-06T05:04:45.665Z,21.06
2019-05-06T05:05:45.654Z,21.10
2019-05-06T05:06:45.641Z,21.10
2019-05-06T05:07:45.658Z,21.10
2019-05-06T05:08:45.614Z,21.12
2019-05-06T05:09:45.608Z,21.04
2019-05-06T05:10:45.626Z,21.12
2019-05-06T05:11:45.592Z,21.13
2019-05-06T05:12:45.602Z,21.06
2019-05-06T05:13:45.592Z,21.12
2019-05-06T05:14:45.583Z,21.10
2019-05-06T05:15:45.561Z,21.07
2019-05-06T05:16:45.591Z,21.01
2019-05-06T05:17:45.550Z,21.06
2019-05-06T05:18:45.562Z,21.12
2019-05-06T05:19:45.541Z,21.16
2019-05-06T05:20:46.776Z,21.14
2019-05-06T05:21:45.521Z,21.14
2019-05-06T05:22:45.538Z,21.06
2019-05-06T05:23:45.516Z,21.09
2019-05-06T05:24:45.502Z,21.13
2019-05-06T05:25:45.491Z,21.10
2019-05-06T05:26:47.143Z,21.14
2019-05-06T05:27:45.474Z,21.14
2019-05-06T05:28:45.489Z,21.09
2019-05-06T05:29:45.458Z,21.19
2019-05-06T05:30:45.475Z,21.17
2019-05-06T05:31:45.442Z,21.10
2019-05-06T05:32:45.447Z,21.21
2019-05-06T05:33:45.439Z,21.27
2019-05-06T05:34:45.431Z,21.16
2019-05-06T05:35:45.424Z,21.13
2019-05-06T05:36:45.419Z,21.22
2019-05-06T05:37:45.410Z,21.21
2019-05-06T05:38:45.392Z,21.25
2019-05-06T05:39:45.382Z,21.19
2019-05-06T05:40:45.383Z,21.25
2019-05-06T05:41:45.371Z,21.22
2019-05-06T05:42:45.418Z,21.09
2019-05-06T05:43:45.363Z,21.25
2019-05-06T05:44:45.345Z,21.16
2019-05-06T05:45:45.357Z,21.22
2019-05-06T05:46:45.362Z,21.19
2019-05-06T05:47:45.344Z,21.25
2019-05-06T05:48:45.378Z,21.27
2019-05-06T05:49:45.326Z,21.21
2019-05-06T05:50:45.334Z,21.28
2019-05-06T05:51:45.320Z,21.22
2019-05-06T05:52:45.317Z,21.31
2019-05-06T05:53:45.308Z,21.25
2019-05-06T05:54:45.300Z,21.28
2019-05-06T05:55:45.318Z,21.32
2019-05-06T05:56:45.302Z,21.25
2019-05-06T05:57:45.265Z,21.25
2019-05-06T05:58:45.278Z,21.29
2019-05-06T05:59:45.257Z,21.24
2019-05-06T06:00:45.251Z,21.27
2019-05-06T06:01:45.241Z,21.19
2019-05-06T06:02:45.247Z,21.22
2019-05-06T06:03:45.226Z,21.19
2019-05-06T06:04:54.839Z,21.28
2019-05-06T06:05:46.277Z,21.25
2019-05-06T06:06:45.227Z,21.17
2019-05-06T06:07:45.216Z,21.29
2019-05-06T06:08:45.246Z,21.31
2019-05-06T06:09:45.204Z,21.27
2019-05-06T06:10:45.204Z,21.29
2019-05-06T06:11:45.190Z,21.24
2019-05-06T06:12:45.181Z,21.29
2019-05-06T06:13:45.168Z,21.25
2019-05-06T06:14:47.384Z,21.22
2019-05-06T06:15:45.155Z,21.21
2019-05-06T06:16:45.153Z,21.21
2019-05-06T06:17:45.198Z,21.27
2019-05-06T06:18:45.122Z,21.25
2019-05-06T06:19:45.133Z,21.24
2019-05-06T06:20:45.110Z,21.25
2019-05-06T06:21:45.105Z,21.22
2019-05-06T06:22:45.095Z,21.22
2019-05-06T06:23:45.089Z,21.27
2019-05-06T06:24:45.111Z,21.29
2019-05-06T06:25:45.065Z,21.22
2019-05-06T06:26:45.060Z,21.28
2019-05-06T06:27:45.051Z,21.21
2019-05-06T06:28:45.056Z,21.29
2019-05-06T06:29:45.478Z,21.32
2019-05-06T06:30:45.031Z,21.27
2019-05-06T06:31:45.027Z,21.29
2019-05-06T06:32:45.020Z,21.29
2019-05-06T06:33:45.007Z,21.25
2019-05-06T06:34:45.043Z,21.28
2019-05-06T06:35:45.012Z,21.31
2019-05-06T06:36:44.986Z,21.32
2019-05-06T06:37:44.978Z,21.28
2019-05-06T06:38:44.976Z,21.27
2019-05-06T06:39:44.974Z,21.31
2019-05-06T06:40:44.973Z,21.21
2019-05-06T06:41:44.960Z,21.25
2019-05-06T06:42:44.944Z,21.35
2019-05-06T06:43:44.951Z,21.35
2019-05-06T06:44:44.992Z,21.40
2019-05-06T06:45:44.930Z,21.32
2019-05-06T06:46:44.937Z,21.38
2019-05-06T06:47:44.927Z,21.32
2019-05-06T06:48:44.913Z,21.32
2019-05-06T06:49:44.911Z,21.32
2019-05-06T06:50:44.895Z,21.43
2019-05-06T06:51:44.932Z,21.42
2019-05-06T06:52:44.890Z,21.40
2019-05-06T06:53:44.877Z,21.44
2019-05-06T06:54:44.861Z,21.47
2019-05-06T06:55:44.858Z,21.37
2019-05-06T06:56:44.954Z,21.40
2019-05-06T06:57:44.836Z,21.38
2019-05-06T06:58:44.867Z,21.46
2019-05-06T06:59:44.832Z,21.44
2019-05-06T07:00:44.823Z,21.43
2019-05-06T07:01:44.818Z,21.40
2019-05-06T07:02:44.794Z,21.44
2019-05-06T07:03:44.805Z,21.49
2019-05-06T07:04:44.841Z,21.42
2019-05-06T07:05:44.782Z,21.47
2019-05-06T07:06:44.792Z,21.43
2019-05-06T07:07:47.455Z,21.43
2019-05-06T07:08:44.771Z,21.46
2019-05-06T07:09:44.772Z,21.32
2019-05-06T07:10:44.763Z,21.42
2019-05-06T07:11:44.757Z,21.37
2019-05-06T07:12:44.775Z,21.52
2019-05-06T07:13:44.742Z,21.43
2019-05-06T07:14:44.723Z,21.47
2019-05-06T07:15:44.713Z,21.44
2019-05-06T07:16:44.777Z,21.47
2019-05-06T07:17:44.777Z,21.53
2019-05-06T07:18:44.685Z,21.56
2019-05-06T07:19:44.686Z,21.54
2019-05-06T07:20:44.705Z,21.53
2019-05-06T07:21:44.663Z,21.58
2019-05-06T07:22:44.675Z,21.49
2019-05-06T07:23:44.655Z,21.59
2019-05-06T07:24:44.693Z,21.53
2019-05-06T07:25:44.632Z,21.62
2019-05-06T07:26:44.644Z,21.58
2019-05-06T07:27:44.635Z,21.49
2019-05-06T07:28:44.644Z,21.50
2019-05-06T07:29:48.175Z,21.58
2019-05-06T07:30:44.642Z,21.56
2019-05-06T07:31:44.617Z,21.52
2019-05-06T07:32:44.603Z,21.59
2019-05-06T07:33:44.612Z,21.61
2019-05-06T07:34:44.622Z,21.53
2019-05-06T07:35:44.601Z,21.52
2019-05-06T07:36:44.580Z,21.54
2019-05-06T07:37:44.592Z,21.54
2019-05-06T07:38:44.579Z,21.59
2019-05-06T07:39:44.569Z,21.56
2019-05-06T07:40:44.706Z,21.64
2019-05-06T07:41:46.087Z,21.69
2019-05-06T07:42:44.555Z,21.61
2019-05-06T07:43:44.559Z,21.58
2019-05-06T07:44:44.545Z,21.64
2019-05-06T07:45:44.532Z,21.54
2019-05-06T07:46:44.607Z,21.62
2019-05-06T07:47:44.517Z,21.58
2019-05-06T07:48:44.515Z,21.62
2019-05-06T07:49:44.494Z,21.62
2019-05-06T07:50:44.479Z,21.67
2019-05-06T07:51:44.478Z,21.59
2019-05-06T07:52:44.467Z,21.58
2019-05-06T07:53:44.453Z,21.62
2019-05-06T07:54:44.449Z,21.58
2019-05-06T07:55:44.439Z,21.61
2019-05-06T07:56:44.478Z,21.62
2019-05-06T07:57:44.423Z,21.61
2019-05-06T07:58:44.505Z,21.62
2019-05-06T07:59:44.410Z,21.68
2019-05-06T08:00:44.406Z,21.59
2019-05-06T08:01:44.404Z,21.54
2019-05-06T08:02:44.415Z,21.64
2019-05-06T08:03:44.376Z,21.64
2019-05-06T08:04:44.382Z,21.67
2019-05-06T08:05:54.643Z,21.61
2019-05-06T08:06:45.395Z,21.72
2019-05-06T08:07:44.360Z,21.64
2019-05-06T08:08:44.371Z,21.67
2019-05-06T08:09:44.347Z,21.62
2019-05-06T08:10:44.347Z,21.74
2019-05-06T08:11:44.393Z,21.65
2019-05-06T08:12:44.345Z,21.72
2019-05-06T08:13:44.341Z,21.71
2019-05-06T08:14:44.340Z,21.67
2019-05-06T08:15:44.311Z,21.72
2019-05-06T08:16:44.442Z,21.62
2019-05-06T08:17:44.388Z,21.77
2019-05-06T08:18:44.284Z,21.62
2019-05-06T08:19:44.274Z,21.68
2019-05-06T08:20:44.295Z,21.75
2019-05-06T08:21:44.278Z,21.68
2019-05-06T08:22:44.310Z,21.69
2019-05-06T08:23:44.255Z,21.69
2019-05-06T08:24:44.245Z,21.65
2019-05-06T08:25:44.240Z,21.75
2019-05-06T08:26:44.235Z,21.72
2019-05-06T08:27:44.244Z,21.72
2019-05-06T08:28:44.639Z,21.67
2019-05-06T08:29:44.206Z,21.72
2019-05-06T08:30:44.198Z,21.74
2019-05-06T08:31:44.209Z,21.71
2019-05-06T08:32:44.180Z,21.72
2019-05-06T08:33:44.177Z,21.62
2019-05-06T08:34:44.230Z,21.67
2019-05-06T08:35:44.160Z,21.71
2019-05-06T08:36:44.150Z,21.72
2019-05-06T08:37:44.158Z,21.74
2019-05-06T08:38:44.138Z,21.71
2019-05-06T08:39:46.114Z,21.68
2019-05-06T08:40:44.124Z,21.72
2019-05-06T08:41:44.112Z,21.74
2019-05-06T08:42:44.113Z,21.69
2019-05-06T08:43:44.128Z,21.68
2019-05-06T08:44:44.086Z,21.68
2019-05-06T08:45:44.084Z,21.69
2019-05-06T08:46:44.112Z,21.68
2019-05-06T08:47:44.071Z,21.71
2019-05-06T08:48:44.101Z,21.77
2019-05-06T08:49:44.046Z,21.64
2019-05-06T08:50:44.066Z,21.71
2019-05-06T08:51:44.024Z,21.74
2019-05-06T08:52:44.073Z,21.72
2019-05-06T08:53:44.017Z,21.79
2019-05-06T08:54:44.024Z,21.64
2019-05-06T08:55:43.997Z,21.71
2019-05-06T08:56:44.008Z,21.64
2019-05-06T08:57:44.015Z,21.69
2019-05-06T08:58:44.075Z,21.72
2019-05-06T08:59:44.002Z,21.69
2019-05-06T09:00:43.980Z,21.68
2019-05-06T09:01:43.988Z,21.69
2019-05-06T09:02:46.160Z,21.67
2019-05-06T09:03:43.974Z,21.64
2019-05-06T09:04:43.976Z,21.65
2019-05-06T09:05:43.966Z,21.74
2019-05-06T09:06:43.957Z,21.68
2019-05-06T09:07:43.954Z,21.74
2019-05-06T09:08:43.940Z,21.69
2019-05-06T09:09:43.987Z,21.74
2019-05-06T09:10:44.018Z,21.68
2019-05-06T09:11:43.919Z,21.71
2019-05-06T09:12:43.908Z,21.71
2019-05-06T09:13:43.910Z,21.68
2019-05-06T09:14:43.926Z,21.75
2019-05-06T09:15:43.907Z,21.80
2019-05-06T09:16:44.277Z,21.72
2019-05-06T09:17:43.868Z,21.72
2019-05-06T09:18:43.876Z,21.69
2019-05-06T09:19:43.884Z,21.71
2019-05-06T09:20:43.856Z,21.62
2019-05-06T09:21:46.396Z,21.72
2019-05-06T09:22:43.845Z,21.65
2019-05-06T09:23:43.843Z,21.64
2019-05-06T09:24:43.820Z,21.67
2019-05-06T09:25:43.817Z,21.64
2019-05-06T09:26:43.812Z,21.64
2019-05-06T09:27:43.802Z,21.64
2019-05-06T09:28:43.871Z,21.65
2019-05-06T09:29:43.780Z,21.67
2019-05-06T09:30:43.779Z,21.61
2019-05-06T09:31:44.036Z,21.67
2019-05-06T09:32:43.757Z,21.65
2019-05-06T09:33:43.751Z,21.65
2019-05-06T09:34:43.753Z,21.68
2019-05-06T09:35:43.736Z,21.62
2019-05-06T09:36:51.675Z,21.62
2019-05-06T09:37:44.724Z,21.65
2019-05-06T09:38:43.757Z,21.53
2019-05-06T09:39:43.723Z,21.68
2019-05-06T09:40:43.753Z,21.58
2019-05-06T09:41:46.333Z,21.58
2019-05-06T09:42:43.713Z,21.69
2019-05-06T09:43:43.704Z,21.62
2019-05-06T09:44:43.711Z,21.65
2019-05-06T09:45:43.711Z,21.61
2019-05-06T09:46:43.697Z,21.62
2019-05-06T09:47:43.672Z,21.61
2019-05-06T09:48:43.671Z,21.68
2019-05-06T09:49:43.654Z,21.56
2019-05-06T09:50:46.277Z,21.65
2019-05-06T09:51:43.675Z,21.53
2019-05-06T09:52:43.668Z,21.61
2019-05-06T09:53:43.639Z,21.62
2019-05-06T09:54:43.700Z,21.62
2019-05-06T09:55:43.631Z,21.59
2019-05-06T09:56:43.629Z,21.52
2019-05-06T09:57:43.613Z,21.65
2019-05-06T09:58:43.613Z,21.62
2019-05-06T09:59:43.641Z,21.59
2019-05-06T10:00:43.589Z,21.64
2019-05-06T10:01:43.858Z,21.68
2019-05-06T10:02:43.579Z,21.61
2019-05-06T10:03:43.575Z,21.64
2019-05-06T10:04:43.565Z,21.61
2019-05-06T10:05:43.555Z,21.69
2019-05-06T10:06:55.631Z,21.65
2019-05-06T10:07:44.596Z,21.58
2019-05-06T10:08:43.556Z,21.69
2019-05-06T10:09:43.681Z,21.68
2019-05-06T10:10:55.663Z,21.62
2019-05-06T10:11:44.533Z,21.62
2019-05-06T10:12:43.490Z,21.64
2019-05-06T10:13:43.483Z,21.67
2019-05-06T10:14:43.606Z,21.61
2019-05-06T10:15:43.478Z,21.68
2019-05-06T10:16:43.502Z,21.61
2019-05-06T10:17:43.506Z,21.61
2019-05-06T10:18:43.437Z,21.72
2019-05-06T10:19:43.434Z,21.62
2019-05-06T10:20:43.426Z,21.72
2019-05-06T10:21:43.416Z,21.64
2019-05-06T10:22:43.424Z,21.67
2019-05-06T10:23:43.401Z,21.64
2019-05-06T10:24:43.513Z,21.69
2019-05-06T10:25:43.932Z,21.69
2019-05-06T10:26:43.374Z,21.61
2019-05-06T10:27:43.367Z,21.61
2019-05-06T10:28:43.376Z,21.65
2019-05-06T10:29:43.416Z,21.59
2019-05-06T10:30:43.339Z,21.59
2019-05-06T10:31:43.328Z,21.58
2019-05-06T10:32:43.337Z,21.62
2019-05-06T10:33:43.316Z,21.58
2019-05-06T10:34:43.638Z,21.52
2019-05-06T10:35:43.299Z,21.59
2019-05-06T10:36:43.306Z,21.61
2019-05-06T10:37:43.290Z,21.64
2019-05-06T10:38:43.291Z,21.64
2019-05-06T10:39:43.277Z,21.62
2019-05-06T10:40:59.026Z,21.59
2019-05-06T10:41:44.252Z,21.58
2019-05-06T10:42:43.284Z,21.53
2019-05-06T10:43:43.262Z,21.61
2019-05-06T10:44:43.230Z,21.59
2019-05-06T10:45:43.232Z,21.68
2019-05-06T10:46:43.257Z,21.61
2019-05-06T10:47:43.208Z,21.61
2019-05-06T10:48:43.215Z,21.64
2019-05-06T10:49:43.183Z,21.58
2019-05-06T10:50:43.179Z,21.64
2019-05-06T10:51:43.173Z,21.54
2019-05-06T10:52:43.173Z,21.62
2019-05-06T10:53:43.155Z,21.56
2019-05-06T10:54:43.150Z,21.59
2019-05-06T10:55:43.159Z,21.59
2019-05-06T10:56:52.766Z,21.62
2019-05-06T10:57:44.203Z,21.62
2019-05-06T10:58:43.954Z,21.59
2019-05-06T10:59:43.132Z,21.54
2019-05-06T11:00:43.118Z,21.64
2019-05-06T11:01:43.129Z,21.58
2019-05-06T11:02:43.214Z,21.61
2019-05-06T11:03:43.117Z,21.50
2019-05-06T11:04:43.092Z,21.54
2019-05-06T11:05:43.399Z,21.56
2019-05-06T11:06:43.178Z,21.53
2019-05-06T11:07:43.230Z,21.53
2019-05-06T11:08:43.050Z,21.58
2019-05-06T11:09:43.051Z,21.59
2019-05-06T11:10:45.439Z,21.54
2019-05-06T11:11:43.029Z,21.52
2019-05-06T11:12:43.158Z,21.61
2019-05-06T11:13:43.018Z,21.64
2019-05-06T11:14:43.026Z,21.54
2019-05-06T11:15:43.533Z,21.52
2019-05-06T11:16:42.995Z,21.56
2019-05-06T11:17:43.569Z,21.58
2019-05-06T11:18:43.001Z,21.59
2019-05-06T11:19:43.004Z,21.56
2019-05-06T11:20:43.803Z,21.50
2019-05-06T11:21:45.208Z,21.59
2019-05-06T11:22:43.587Z,21.56
2019-05-06T11:23:42.965Z,21.56
2019-05-06T11:24:42.961Z,21.53
2019-05-06T11:25:43.301Z,21.56
2019-05-06T11:26:43.142Z,21.58
2019-05-06T11:27:45.139Z,21.62
2019-05-06T11:28:43.002Z,21.53
2019-05-06T11:29:43.576Z,21.56
2019-05-06T11:30:42.938Z,21.52
2019-05-06T11:31:43.341Z,21.53
2019-05-06T11:32:44.395Z,21.54
2019-05-06T11:33:42.912Z,21.56
2019-05-06T11:34:42.882Z,21.58
2019-05-06T11:35:43.173Z,21.53
2019-05-06T11:36:42.868Z,21.54
2019-05-06T11:37:49.273Z,21.52
2019-05-06T11:38:43.996Z,21.54
2019-05-06T11:39:43.193Z,21.59
2019-05-06T11:40:42.863Z,21.58
2019-05-06T11:41:59.669Z,21.54
2019-05-06T11:42:43.937Z,21.59
2019-05-06T11:43:43.007Z,21.64
2019-05-06T11:44:44.014Z,21.58
2019-05-06T11:45:42.885Z,21.64
2019-05-06T11:46:43.012Z,21.56
2019-05-06T11:47:42.836Z,21.56
2019-05-06T11:48:43.281Z,21.58
2019-05-06T11:49:44.135Z,21.68
2019-05-06T11:50:42.912Z,21.61
2019-05-06T11:51:43.595Z,21.53
2019-05-06T11:52:43.503Z,21.58
2019-05-06T11:53:42.782Z,21.58
2019-05-06T11:54:42.854Z,21.64
2019-05-06T11:55:42.782Z,21.69
2019-05-06T11:56:50.764Z,21.64
2019-05-06T11:57:44.625Z,21.59
2019-05-06T11:58:43.183Z,21.59
2019-05-06T11:59:43.369Z,21.62
2019-05-06T12:00:44.419Z,21.52
2019-05-06T12:01:43.455Z,21.59
2019-05-06T12:02:48.054Z,21.67
2019-05-06T12:03:43.721Z,21.61
2019-05-06T12:04:42.738Z,21.65
2019-05-06T12:05:42.709Z,21.56
2019-05-06T12:06:42.717Z,21.56
2019-05-06T12:07:44.866Z,21.61
2019-05-06T12:08:43.775Z,21.59
2019-05-06T12:09:42.704Z,21.61
2019-05-06T12:10:42.682Z,21.59
2019-05-06T12:11:43.323Z,21.61
2019-05-06T12:12:42.681Z,21.54
2019-05-06T12:13:42.719Z,21.65
2019-05-06T12:14:43.087Z,21.59
2019-05-06T12:15:42.650Z,21.64
2019-05-06T12:16:42.644Z,21.56
2019-05-06T12:17:42.632Z,21.62
2019-05-06T12:18:42.632Z,21.65
2019-05-06T12:19:43.253Z,21.61
2019-05-06T12:20:42.704Z,21.61
2019-05-06T12:21:43.211Z,21.54
2019-05-06T12:22:42.601Z,21.61
2019-05-06T12:23:44.868Z,21.65
2019-05-06T12:24:43.197Z,21.59
2019-05-06T12:25:45.313Z,21.54
2019-05-06T12:26:42.995Z,21.62
2019-05-06T12:27:43.166Z,21.56
2019-05-06T12:28:43.546Z,21.67
2019-05-06T12:29:42.941Z,21.58
2019-05-06T12:30:42.799Z,21.56
2019-05-06T12:31:42.542Z,21.54
2019-05-06T12:32:43.354Z,21.54
2019-05-06T12:33:42.775Z,21.64
2019-05-06T12:34:42.950Z,21.56
2019-05-06T12:35:42.832Z,21.56
2019-05-06T12:36:42.843Z,21.58
2019-05-06T12:37:44.066Z,21.64
2019-05-06T12:38:43.242Z,21.59
2019-05-06T12:39:43.175Z,21.59
2019-05-06T12:40:42.862Z,21.58
2019-05-06T12:41:43.039Z,21.62
2019-05-06T12:42:43.156Z,21.61
2019-05-06T12:43:43.089Z,21.53
2019-05-06T12:44:42.535Z,21.61
2019-05-06T12:45:43.050Z,21.61
2019-05-06T12:46:43.068Z,21.58
2019-05-06T12:47:42.733Z,21.64
2019-05-06T12:48:44.055Z,21.56
2019-05-06T12:49:42.721Z,21.61
2019-05-06T12:50:43.031Z,21.50
2019-05-06T12:51:43.290Z,21.62
2019-05-06T12:52:44.162Z,21.53